createdAt,value
2017-10-31T00:00:23.183Z,0
2017-10-31T00:01:31.332Z,0
2017-10-31T00:02:39.537Z,0
2017-10-31T00:03:47.965Z,0
2017-10-31T00:04:56.005Z,0
2017-10-31T00:06:03.925Z,0
2017-10-31T00:07:12.421Z,0
2017-10-31T00:08:19.810Z,0
2017-10-31T00:09:28.526Z,0
2017-10-31T00:10:36.069Z,0
2017-10-31T00:11:44.069Z,0
2017-10-31T00:12:52.175Z,0
2017-10-31T00:14:00.344Z,0
2017-10-31T00:15:08.846Z,0
2017-10-31T00:16:16.487Z,0
2017-10-31T00:17:24.507Z,0
2017-10-31T00:18:32.596Z,0
2017-10-31T00:19:40.867Z,0
2017-10-31T00:20:48.766Z,0
2017-10-31T00:21:56.855Z,0
2017-10-31T00:23:04.942Z,0
2017-10-31T00:24:13.705Z,0
2017-10-31T00:25:21.122Z,0
2017-10-31T00:26:29.204Z,0
2017-10-31T00:27:37.291Z,0
2017-10-31T00:28:45.379Z,0
2017-10-31T00:29:53.465Z,0
2017-10-31T00:31:01.799Z,0
2017-10-31T00:32:09.980Z,0
2017-10-31T00:33:17.943Z,0
2017-10-31T00:34:26.146Z,0
2017-10-31T00:35:34.032Z,0
2017-10-31T00:36:42.408Z,0
2017-10-31T00:37:50.376Z,0
2017-10-31T00:38:58.175Z,0
2017-10-31T00:40:06.263Z,0
2017-10-31T00:41:14.347Z,0
2017-10-31T00:42:22.436Z,0
2017-10-31T00:43:30.825Z,0
2017-10-31T00:44:39.019Z,0
2017-10-31T00:45:47.013Z,0
2017-10-31T00:46:55.086Z,0
2017-10-31T00:48:03.171Z,0
2017-10-31T00:49:11.259Z,0
2017-10-31T00:50:19.356Z,0
2017-10-31T00:51:27.441Z,0
2017-10-31T00:52:35.532Z,0
2017-10-31T00:53:43.612Z,0
2017-10-31T00:54:51.700Z,0
2017-10-31T00:55:59.862Z,0
2017-10-31T00:57:07.983Z,0
2017-10-31T00:58:16.037Z,0
2017-10-31T00:59:24.166Z,0
2017-10-31T01:00:32.230Z,0
2017-10-31T01:01:40.323Z,0
2017-10-31T01:02:48.406Z,0
2017-10-31T01:03:56.453Z,0
2017-10-31T01:05:04.553Z,0
2017-10-31T01:06:12.680Z,0
2017-10-31T01:07:20.761Z,0
2017-10-31T01:08:28.851Z,0
2017-10-31T01:09:36.841Z,0
2017-10-31T01:10:44.929Z,0
2017-10-31T01:11:53.100Z,0
2017-10-31T01:13:01.191Z,0
2017-10-31T01:14:09.276Z,0
2017-10-31T01:15:17.279Z,0
2017-10-31T01:16:25.465Z,0
2017-10-31T01:17:33.474Z,0
2017-10-31T01:18:41.565Z,0
2017-10-31T01:19:49.650Z,0
2017-10-31T01:20:57.735Z,0
2017-10-31T01:22:05.823Z,0
2017-10-31T01:23:13.915Z,0
2017-10-31T01:24:22.000Z,0
2017-10-31T01:25:30.083Z,0
2017-10-31T01:26:38.169Z,0
2017-10-31T01:27:46.255Z,0
2017-10-31T01:28:54.346Z,0
2017-10-31T01:30:02.432Z,0
2017-10-31T01:31:10.519Z,0
2017-10-31T01:32:18.610Z,0
2017-10-31T01:33:26.763Z,0
2017-10-31T01:34:34.776Z,0
2017-10-31T01:35:42.865Z,0
2017-10-31T01:36:50.951Z,0
2017-10-31T01:37:59.329Z,0
2017-10-31T01:39:07.864Z,0
2017-10-31T01:40:15.461Z,0
2017-10-31T01:41:23.301Z,0
2017-10-31T01:42:31.385Z,0
2017-10-31T01:43:39.562Z,0
2017-10-31T01:44:47.649Z,0
2017-10-31T01:45:55.739Z,0
2017-10-31T01:47:04.158Z,0
2017-10-31T01:48:12.178Z,0
2017-10-31T01:49:20.001Z,0
2017-10-31T01:50:28.106Z,0
2017-10-31T01:51:36.177Z,0
2017-10-31T01:52:44.260Z,0
2017-10-31T01:53:52.348Z,0
2017-10-31T01:55:00.437Z,0
2017-10-31T01:56:08.527Z,0
2017-10-31T01:57:16.607Z,0
2017-10-31T01:58:24.695Z,0
2017-10-31T01:59:32.784Z,0
2017-10-31T02:00:40.872Z,0
2017-10-31T02:01:48.961Z,0
2017-10-31T02:02:57.045Z,0
2017-10-31T02:04:05.129Z,0
2017-10-31T02:05:13.224Z,0
2017-10-31T02:06:21.337Z,0
2017-10-31T02:07:29.408Z,0
2017-10-31T02:08:37.494Z,0
2017-10-31T02:09:45.582Z,0
2017-10-31T02:10:53.665Z,0
2017-10-31T02:12:01.763Z,0
2017-10-31T02:13:09.849Z,0
2017-10-31T02:14:17.938Z,0
2017-10-31T02:15:26.028Z,0
2017-10-31T02:16:34.111Z,0
2017-10-31T02:17:42.198Z,0
2017-10-31T02:18:50.282Z,0
2017-10-31T02:19:58.371Z,0
2017-10-31T02:21:06.459Z,0
2017-10-31T02:22:14.545Z,0
2017-10-31T02:23:22.632Z,0
2017-10-31T02:24:30.719Z,0
2017-10-31T02:25:38.808Z,0
2017-10-31T02:26:46.902Z,0
2017-10-31T02:27:54.986Z,0
2017-10-31T02:29:03.071Z,0
2017-10-31T02:30:11.162Z,0
2017-10-31T02:31:19.241Z,0
2017-10-31T02:32:27.335Z,0
2017-10-31T02:33:35.416Z,0
2017-10-31T02:34:43.503Z,0
2017-10-31T02:35:51.591Z,0
2017-10-31T02:36:59.678Z,0
2017-10-31T02:38:07.776Z,0
2017-10-31T02:39:15.851Z,0
2017-10-31T02:40:23.955Z,0
2017-10-31T02:41:32.047Z,0
2017-10-31T02:42:40.114Z,0
2017-10-31T02:43:48.296Z,0
2017-10-31T02:44:56.292Z,0
2017-10-31T02:46:04.380Z,0
2017-10-31T02:47:12.466Z,0
2017-10-31T02:48:20.554Z,0
2017-10-31T02:49:28.640Z,0
2017-10-31T02:50:36.727Z,0
2017-10-31T02:51:44.812Z,0
2017-10-31T02:52:52.910Z,0
2017-10-31T02:54:01.025Z,0
2017-10-31T02:55:09.083Z,0
2017-10-31T02:56:17.168Z,0
2017-10-31T02:57:25.255Z,0
2017-10-31T02:58:33.339Z,0
2017-10-31T02:59:41.427Z,0
2017-10-31T03:00:49.518Z,0
2017-10-31T03:01:57.602Z,0
2017-10-31T03:03:05.692Z,0
2017-10-31T03:04:13.776Z,0
2017-10-31T03:05:21.864Z,0
2017-10-31T03:06:29.953Z,0
2017-10-31T03:07:38.037Z,0
2017-10-31T03:08:46.123Z,0
2017-10-31T03:09:54.229Z,0
2017-10-31T03:11:02.303Z,0
2017-10-31T03:12:10.386Z,0
2017-10-31T03:13:18.478Z,0
2017-10-31T03:14:26.561Z,0
2017-10-31T03:15:34.647Z,0
2017-10-31T03:16:42.736Z,0
2017-10-31T03:17:50.823Z,0
2017-10-31T03:18:58.911Z,0
2017-10-31T03:20:06.996Z,0
2017-10-31T03:21:15.086Z,0
2017-10-31T03:22:23.574Z,0
2017-10-31T03:23:31.258Z,0
2017-10-31T03:24:39.342Z,0
2017-10-31T03:25:47.429Z,0
2017-10-31T03:26:55.516Z,0
2017-10-31T03:28:03.606Z,0
2017-10-31T03:29:11.692Z,0
2017-10-31T03:30:19.780Z,0
2017-10-31T03:31:27.870Z,0
2017-10-31T03:32:35.954Z,0
2017-10-31T03:33:44.058Z,0
2017-10-31T03:34:52.128Z,0
2017-10-31T03:36:00.222Z,0
2017-10-31T03:37:08.301Z,0
2017-10-31T03:38:16.394Z,0
2017-10-31T03:39:24.478Z,0
2017-10-31T03:40:32.563Z,0
2017-10-31T03:41:40.654Z,0
2017-10-31T03:42:48.738Z,0
2017-10-31T03:43:56.825Z,0
2017-10-31T03:45:04.911Z,0
2017-10-31T03:46:13.004Z,0
2017-10-31T03:47:21.094Z,0
2017-10-31T03:48:29.191Z,0
2017-10-31T03:49:37.270Z,0
2017-10-31T03:50:45.357Z,0
2017-10-31T03:51:53.447Z,0
2017-10-31T03:53:01.585Z,0
2017-10-31T03:54:09.617Z,0
2017-10-31T03:55:17.704Z,0
2017-10-31T03:56:25.799Z,0
2017-10-31T03:57:33.886Z,0
2017-10-31T03:58:41.977Z,0
2017-10-31T03:59:50.070Z,0
2017-10-31T04:00:58.139Z,0
2017-10-31T04:02:06.224Z,0
2017-10-31T04:03:14.318Z,0
2017-10-31T04:04:22.399Z,0
2017-10-31T04:05:30.487Z,0
2017-10-31T04:06:38.573Z,0
2017-10-31T04:07:46.660Z,0
2017-10-31T04:08:54.749Z,0
2017-10-31T04:10:02.834Z,0
2017-10-31T04:11:10.978Z,0
2017-10-31T04:12:19.060Z,0
2017-10-31T04:13:27.148Z,0
2017-10-31T04:14:35.234Z,0
2017-10-31T04:15:43.340Z,0
2017-10-31T04:16:51.418Z,0
2017-10-31T04:17:59.501Z,0
2017-10-31T04:19:07.600Z,0
2017-10-31T04:20:15.681Z,0
2017-10-31T04:21:23.762Z,0
2017-10-31T04:22:31.851Z,0
2017-10-31T04:23:39.940Z,0
2017-10-31T04:24:48.029Z,0
2017-10-31T04:25:56.112Z,0
2017-10-31T04:27:04.221Z,0
2017-10-31T04:28:12.308Z,0
2017-10-31T04:29:20.395Z,0
2017-10-31T04:30:28.606Z,0
2017-10-31T04:31:36.701Z,0
2017-10-31T04:32:44.777Z,0
2017-10-31T04:33:52.869Z,0
2017-10-31T04:35:00.953Z,0
2017-10-31T04:36:09.040Z,0
2017-10-31T04:37:17.131Z,0
2017-10-31T04:38:25.212Z,0
2017-10-31T04:39:33.309Z,0
2017-10-31T04:40:41.397Z,0
2017-10-31T04:41:49.479Z,0
2017-10-31T04:42:57.566Z,0
2017-10-31T04:44:05.654Z,0
2017-10-31T04:45:13.741Z,0
2017-10-31T04:46:21.828Z,0
2017-10-31T04:47:29.934Z,0
2017-10-31T04:48:38.016Z,0
2017-10-31T04:49:46.101Z,0
2017-10-31T04:50:54.182Z,0
2017-10-31T04:52:02.270Z,0
2017-10-31T04:53:10.357Z,0
2017-10-31T04:54:18.444Z,0
2017-10-31T04:55:26.530Z,0
2017-10-31T04:56:34.624Z,0
2017-10-31T04:57:42.716Z,0
2017-10-31T04:58:50.804Z,0
2017-10-31T04:59:58.884Z,0
2017-10-31T05:01:06.981Z,0
2017-10-31T05:02:15.062Z,0
2017-10-31T05:03:23.160Z,0
2017-10-31T05:04:31.245Z,0
2017-10-31T05:05:39.332Z,0
2017-10-31T05:06:47.440Z,0
2017-10-31T05:07:55.511Z,0
2017-10-31T05:09:03.600Z,0
2017-10-31T05:10:11.685Z,0
2017-10-31T05:11:19.778Z,0
2017-10-31T05:12:27.860Z,0
2017-10-31T05:13:35.942Z,0
2017-10-31T05:14:44.032Z,0
2017-10-31T05:15:52.125Z,0
2017-10-31T05:17:00.203Z,0
2017-10-31T05:18:08.289Z,0
2017-10-31T05:19:16.376Z,0
2017-10-31T05:20:24.461Z,0
2017-10-31T05:21:32.547Z,0
2017-10-31T05:22:40.634Z,0
2017-10-31T05:23:48.719Z,0
2017-10-31T05:24:56.809Z,0
2017-10-31T05:26:04.891Z,0
2017-10-31T05:27:12.978Z,0
2017-10-31T05:28:21.062Z,0
2017-10-31T05:29:29.168Z,0
2017-10-31T05:30:37.238Z,0
2017-10-31T05:31:45.323Z,0
2017-10-31T05:32:53.413Z,0
2017-10-31T05:34:01.496Z,0
2017-10-31T05:35:09.581Z,0
2017-10-31T05:36:17.681Z,0
2017-10-31T05:37:25.753Z,0
2017-10-31T05:38:33.870Z,0
2017-10-31T05:39:41.933Z,0
2017-10-31T05:40:50.032Z,0
2017-10-31T05:41:58.110Z,0
2017-10-31T05:43:06.198Z,0
2017-10-31T05:44:14.283Z,0
2017-10-31T05:45:22.381Z,0
2017-10-31T05:46:30.462Z,0
2017-10-31T05:47:38.546Z,0
2017-10-31T05:48:46.635Z,0
2017-10-31T05:49:54.719Z,0
2017-10-31T05:51:02.804Z,0
2017-10-31T05:52:10.890Z,0
2017-10-31T05:53:18.978Z,0
2017-10-31T05:54:27.068Z,0
2017-10-31T05:55:35.150Z,0
2017-10-31T05:56:43.238Z,0
2017-10-31T05:57:51.321Z,0
2017-10-31T05:58:59.406Z,0
2017-10-31T06:00:07.494Z,0
2017-10-31T06:01:15.678Z,0
2017-10-31T06:02:23.667Z,0
2017-10-31T06:03:31.752Z,0
2017-10-31T06:04:39.847Z,0
2017-10-31T06:05:48.232Z,0
2017-10-31T06:06:56.158Z,0
2017-10-31T06:08:04.243Z,0
2017-10-31T06:09:12.329Z,4
2017-10-31T06:10:20.415Z,4
2017-10-31T06:11:28.504Z,0
2017-10-31T06:12:36.586Z,0
2017-10-31T06:13:44.671Z,0
2017-10-31T06:14:52.755Z,0
2017-10-31T06:16:00.843Z,0
2017-10-31T06:17:08.931Z,4
2017-10-31T06:18:17.016Z,4
2017-10-31T06:19:25.196Z,4
2017-10-31T06:20:33.190Z,4
2017-10-31T06:21:41.274Z,0
2017-10-31T06:22:49.357Z,4
2017-10-31T06:23:57.443Z,4
2017-10-31T06:25:05.531Z,4
2017-10-31T06:26:13.617Z,0
2017-10-31T06:27:21.702Z,4
2017-10-31T06:28:29.789Z,4
2017-10-31T06:29:37.874Z,4
2017-10-31T06:30:45.979Z,4
2017-10-31T06:31:54.067Z,4
2017-10-31T06:33:03.041Z,4
2017-10-31T06:34:11.009Z,4
2017-10-31T06:35:19.098Z,8
2017-10-31T06:36:27.187Z,4
2017-10-31T06:37:35.268Z,4
2017-10-31T06:38:43.353Z,4
2017-10-31T06:39:51.438Z,8
2017-10-31T06:40:59.528Z,8
2017-10-31T06:42:07.611Z,4
2017-10-31T06:43:15.696Z,4
2017-10-31T06:44:23.781Z,8
2017-10-31T06:45:31.924Z,8
2017-10-31T06:46:39.955Z,8
2017-10-31T06:47:48.038Z,12
2017-10-31T06:48:56.130Z,12
2017-10-31T06:50:04.219Z,16
2017-10-31T06:51:12.299Z,16
2017-10-31T06:52:20.383Z,16
2017-10-31T06:53:28.469Z,16
2017-10-31T06:54:36.556Z,20
2017-10-31T06:55:44.639Z,20
2017-10-31T06:56:52.723Z,20
2017-10-31T06:58:00.812Z,16
2017-10-31T06:59:08.918Z,20
2017-10-31T07:00:17.000Z,20
2017-10-31T07:01:25.085Z,20
2017-10-31T07:02:33.172Z,20
2017-10-31T07:03:41.276Z,16
2017-10-31T07:04:49.344Z,20
2017-10-31T07:05:57.428Z,20
2017-10-31T07:07:05.516Z,16
2017-10-31T07:08:13.601Z,16
2017-10-31T07:09:21.686Z,16
2017-10-31T07:10:29.794Z,16
2017-10-31T07:11:37.859Z,16
2017-10-31T07:12:45.949Z,16
2017-10-31T07:13:54.037Z,16
2017-10-31T07:15:02.124Z,16
2017-10-31T07:16:10.213Z,12
2017-10-31T07:17:18.293Z,12
2017-10-31T07:18:26.386Z,16
2017-10-31T07:19:34.463Z,12
2017-10-31T07:20:42.563Z,12
2017-10-31T07:21:50.653Z,16
2017-10-31T07:22:58.765Z,16
2017-10-31T07:24:06.828Z,16
2017-10-31T07:25:14.922Z,16
2017-10-31T07:26:23.024Z,12
2017-10-31T07:27:31.102Z,16
2017-10-31T07:28:39.176Z,16
2017-10-31T07:29:47.266Z,16
2017-10-31T07:30:55.353Z,16
2017-10-31T07:32:03.436Z,16
2017-10-31T07:33:12.526Z,16
2017-10-31T07:34:20.339Z,16
2017-10-31T07:35:28.426Z,20
2017-10-31T07:36:36.683Z,16
2017-10-31T07:37:44.597Z,20
2017-10-31T07:38:52.678Z,20
2017-10-31T07:40:00.763Z,20
2017-10-31T07:41:08.852Z,20
2017-10-31T07:42:16.935Z,20
2017-10-31T07:43:25.024Z,20
2017-10-31T07:44:33.106Z,16
2017-10-31T07:45:41.192Z,20
2017-10-31T07:46:49.307Z,20
2017-10-31T07:47:57.360Z,20
2017-10-31T07:49:05.520Z,20
2017-10-31T07:50:13.530Z,20
2017-10-31T07:51:21.615Z,20
2017-10-31T07:52:29.716Z,20
2017-10-31T07:53:37.787Z,20
2017-10-31T07:54:45.873Z,20
2017-10-31T07:55:53.962Z,20
2017-10-31T07:57:02.043Z,20
2017-10-31T07:58:10.139Z,24
2017-10-31T07:59:18.219Z,24
2017-10-31T08:00:26.304Z,24
2017-10-31T08:01:34.388Z,24
2017-10-31T08:02:42.480Z,24
2017-10-31T08:03:50.565Z,24
2017-10-31T08:04:58.651Z,28
2017-10-31T08:06:06.733Z,28
2017-10-31T08:07:14.819Z,28
2017-10-31T08:08:22.904Z,28
2017-10-31T08:09:30.995Z,28
2017-10-31T08:10:39.076Z,28
2017-10-31T08:11:47.161Z,28
2017-10-31T08:12:55.249Z,28
2017-10-31T08:14:03.338Z,28
2017-10-31T08:15:11.415Z,28
2017-10-31T08:16:19.500Z,28
2017-10-31T08:17:27.585Z,28
2017-10-31T08:18:35.672Z,28
2017-10-31T08:19:43.757Z,24
2017-10-31T08:20:51.841Z,28
2017-10-31T08:21:59.927Z,28
2017-10-31T08:23:08.010Z,28
2017-10-31T08:24:16.097Z,28
2017-10-31T08:25:24.188Z,28
2017-10-31T08:26:32.265Z,28
2017-10-31T08:27:40.423Z,32
2017-10-31T08:28:48.440Z,28
2017-10-31T08:29:56.521Z,28
2017-10-31T08:31:04.608Z,28
2017-10-31T08:32:12.692Z,28
2017-10-31T08:33:20.778Z,28
2017-10-31T08:34:28.863Z,28
2017-10-31T08:35:36.959Z,28
2017-10-31T08:36:45.037Z,28
2017-10-31T08:37:53.132Z,28
2017-10-31T08:39:01.212Z,28
2017-10-31T08:40:09.313Z,28
2017-10-31T08:41:17.540Z,28
2017-10-31T08:42:25.467Z,28
2017-10-31T08:43:33.551Z,28
2017-10-31T08:44:41.636Z,28
2017-10-31T08:45:49.733Z,28
2017-10-31T08:46:57.805Z,28
2017-10-31T08:48:05.911Z,28
2017-10-31T08:49:13.992Z,28
2017-10-31T08:50:22.062Z,28
2017-10-31T08:51:30.159Z,32
2017-10-31T08:52:38.273Z,32
2017-10-31T08:53:46.341Z,32
2017-10-31T08:54:54.424Z,32
2017-10-31T08:56:02.511Z,32
2017-10-31T08:57:10.626Z,28
2017-10-31T08:58:18.820Z,32
2017-10-31T08:59:26.786Z,32
2017-10-31T09:00:34.851Z,32
2017-10-31T09:01:43.061Z,28
2017-10-31T09:02:51.023Z,32
2017-10-31T09:03:59.227Z,32
2017-10-31T09:05:07.417Z,32
2017-10-31T09:06:15.287Z,28
2017-10-31T09:07:23.385Z,32
2017-10-31T09:08:31.466Z,32
2017-10-31T09:09:39.558Z,32
2017-10-31T09:10:47.636Z,32
2017-10-31T09:11:55.723Z,36
2017-10-31T09:13:03.806Z,32
2017-10-31T09:14:11.910Z,36
2017-10-31T09:15:19.977Z,32
2017-10-31T09:16:28.059Z,36
2017-10-31T09:17:36.146Z,32
2017-10-31T09:18:44.237Z,32
2017-10-31T09:19:52.316Z,36
2017-10-31T09:21:00.402Z,32
2017-10-31T09:22:08.487Z,36
2017-10-31T09:23:16.570Z,36
2017-10-31T09:24:24.654Z,36
2017-10-31T09:25:32.741Z,36
2017-10-31T09:26:40.829Z,36
2017-10-31T09:27:48.920Z,36
2017-10-31T09:28:56.997Z,36
2017-10-31T09:30:05.084Z,36
2017-10-31T09:31:13.168Z,36
2017-10-31T09:32:21.253Z,36
2017-10-31T09:33:29.337Z,40
2017-10-31T09:34:37.423Z,36
2017-10-31T09:35:45.523Z,36
2017-10-31T09:36:53.594Z,36
2017-10-31T09:38:01.679Z,36
2017-10-31T09:39:09.763Z,36
2017-10-31T09:40:17.850Z,36
2017-10-31T09:41:25.938Z,36
2017-10-31T09:42:34.024Z,36
2017-10-31T09:43:42.104Z,36
2017-10-31T09:44:50.187Z,36
2017-10-31T09:45:58.274Z,36
2017-10-31T09:47:06.360Z,40
2017-10-31T09:48:14.445Z,36
2017-10-31T09:49:22.531Z,36
2017-10-31T09:50:30.614Z,40
2017-10-31T09:51:38.702Z,36
2017-10-31T09:52:46.785Z,40
2017-10-31T09:53:54.868Z,36
2017-10-31T09:55:02.949Z,40
2017-10-31T09:56:11.056Z,40
2017-10-31T09:57:19.139Z,40
2017-10-31T09:58:27.226Z,36
2017-10-31T09:59:35.309Z,36
2017-10-31T10:00:43.395Z,36
2017-10-31T10:01:51.478Z,40
2017-10-31T10:02:59.566Z,36
2017-10-31T10:04:07.661Z,36
2017-10-31T10:05:15.743Z,36
2017-10-31T10:06:23.829Z,40
2017-10-31T10:07:31.915Z,36
2017-10-31T10:08:39.999Z,36
2017-10-31T10:09:48.083Z,36
2017-10-31T10:10:56.169Z,36
2017-10-31T10:12:04.257Z,40
2017-10-31T10:13:12.342Z,36
2017-10-31T10:14:20.427Z,36
2017-10-31T10:15:28.512Z,36
2017-10-31T10:16:36.597Z,36
2017-10-31T10:17:44.682Z,36
2017-10-31T10:18:52.766Z,36
2017-10-31T10:20:00.927Z,36
2017-10-31T10:21:08.937Z,36
2017-10-31T10:22:17.024Z,36
2017-10-31T10:23:25.127Z,32
2017-10-31T10:24:33.200Z,36
2017-10-31T10:25:41.278Z,36
2017-10-31T10:26:49.362Z,40
2017-10-31T10:27:57.448Z,36
2017-10-31T10:29:05.532Z,36
2017-10-31T10:30:13.618Z,36
2017-10-31T10:31:21.706Z,36
2017-10-31T10:32:29.788Z,36
2017-10-31T10:33:37.873Z,36
2017-10-31T10:34:45.957Z,36
2017-10-31T10:35:54.049Z,32
2017-10-31T10:37:02.143Z,32
2017-10-31T10:38:10.229Z,36
2017-10-31T10:39:18.321Z,36
2017-10-31T10:40:26.393Z,32
2017-10-31T10:41:34.481Z,32
2017-10-31T10:42:42.563Z,32
2017-10-31T10:43:50.650Z,36
2017-10-31T10:44:58.735Z,32
2017-10-31T10:46:06.819Z,36
2017-10-31T10:47:14.923Z,36
2017-10-31T10:48:22.991Z,36
2017-10-31T10:49:31.078Z,32
2017-10-31T10:50:39.165Z,32
2017-10-31T10:51:47.243Z,32
2017-10-31T10:52:55.331Z,32
2017-10-31T10:54:03.414Z,32
2017-10-31T10:55:11.501Z,32
2017-10-31T10:56:19.584Z,32
2017-10-31T10:57:27.671Z,32
2017-10-31T10:58:35.754Z,36
2017-10-31T10:59:43.839Z,32
2017-10-31T11:00:51.923Z,32
2017-10-31T11:02:00.019Z,32
2017-10-31T11:03:08.118Z,32
2017-10-31T11:04:16.181Z,32
2017-10-31T11:05:24.286Z,32
2017-10-31T11:06:32.355Z,32
2017-10-31T11:07:40.445Z,32
2017-10-31T11:08:48.529Z,28
2017-10-31T11:09:56.615Z,32
2017-10-31T11:11:04.701Z,32
2017-10-31T11:12:12.783Z,32
2017-10-31T11:13:20.870Z,32
2017-10-31T11:14:28.963Z,28
2017-10-31T11:15:37.060Z,28
2017-10-31T11:16:45.126Z,32
2017-10-31T11:17:53.209Z,32
2017-10-31T11:19:01.317Z,28
2017-10-31T11:20:09.383Z,28
2017-10-31T11:21:17.467Z,32
2017-10-31T11:22:25.551Z,32
2017-10-31T11:23:33.637Z,32
2017-10-31T11:24:41.723Z,32
2017-10-31T11:25:49.806Z,28
2017-10-31T11:26:57.904Z,32
2017-10-31T11:28:05.989Z,32
2017-10-31T11:29:14.062Z,28
2017-10-31T11:30:22.157Z,28
2017-10-31T11:31:30.243Z,28
2017-10-31T11:32:38.324Z,28
2017-10-31T11:33:46.427Z,28
2017-10-31T11:34:54.495Z,28
2017-10-31T11:36:02.581Z,32
2017-10-31T11:37:10.670Z,32
2017-10-31T11:38:18.755Z,32
2017-10-31T11:39:26.835Z,28
2017-10-31T11:40:35.341Z,28
2017-10-31T11:41:43.007Z,28
2017-10-31T11:42:51.092Z,28
2017-10-31T11:43:59.178Z,32
2017-10-31T11:45:07.259Z,32
2017-10-31T11:46:15.344Z,32
2017-10-31T11:47:23.428Z,28
2017-10-31T11:48:31.515Z,32
2017-10-31T11:49:39.601Z,32
2017-10-31T11:50:47.684Z,32
2017-10-31T11:51:55.767Z,32
2017-10-31T11:53:03.851Z,28
2017-10-31T11:54:11.942Z,28
2017-10-31T11:55:20.027Z,28
2017-10-31T11:56:28.110Z,28
2017-10-31T11:57:36.193Z,32
2017-10-31T11:58:44.277Z,32
2017-10-31T11:59:52.361Z,32
2017-10-31T12:01:00.447Z,32
2017-10-31T12:02:08.531Z,32
2017-10-31T12:03:16.627Z,32
2017-10-31T12:04:24.699Z,32
2017-10-31T12:05:32.811Z,28
2017-10-31T12:06:40.964Z,32
2017-10-31T12:07:48.956Z,32
2017-10-31T12:08:57.041Z,32
2017-10-31T12:10:05.124Z,28
2017-10-31T12:11:13.210Z,28
2017-10-31T12:12:21.294Z,28
2017-10-31T12:13:29.382Z,32
2017-10-31T12:14:37.465Z,32
2017-10-31T12:15:45.551Z,32
2017-10-31T12:16:53.634Z,32
2017-10-31T12:18:01.719Z,32
2017-10-31T12:19:09.810Z,32
2017-10-31T12:20:17.933Z,32
2017-10-31T12:21:25.972Z,32
2017-10-31T12:22:34.057Z,32
2017-10-31T12:23:42.163Z,32
2017-10-31T12:24:50.251Z,36
2017-10-31T12:25:58.332Z,36
2017-10-31T12:27:06.419Z,36
2017-10-31T12:28:14.501Z,32
2017-10-31T12:29:22.587Z,36
2017-10-31T12:30:30.670Z,36
2017-10-31T12:31:38.757Z,32
2017-10-31T12:32:46.842Z,36
2017-10-31T12:33:54.942Z,36
2017-10-31T12:35:03.025Z,36
2017-10-31T12:36:11.121Z,36
2017-10-31T12:37:19.223Z,36
2017-10-31T12:38:27.290Z,36
2017-10-31T12:39:35.376Z,36
2017-10-31T12:40:43.457Z,36
2017-10-31T12:41:51.543Z,36
2017-10-31T12:42:59.627Z,36
2017-10-31T12:44:07.712Z,36
2017-10-31T12:45:15.798Z,36
2017-10-31T12:46:23.884Z,36
2017-10-31T12:47:31.970Z,36
2017-10-31T12:48:40.060Z,36
2017-10-31T12:49:48.141Z,36
2017-10-31T12:50:56.224Z,32
2017-10-31T12:52:04.325Z,32
2017-10-31T12:53:12.392Z,32
2017-10-31T12:54:20.477Z,28
2017-10-31T12:55:28.562Z,28
2017-10-31T12:56:36.678Z,32
2017-10-31T12:57:44.757Z,32
2017-10-31T12:58:52.847Z,28
2017-10-31T13:00:00.923Z,28
2017-10-31T13:01:09.015Z,32
2017-10-31T13:02:17.117Z,28
2017-10-31T13:03:25.202Z,28
2017-10-31T13:04:33.288Z,28
2017-10-31T13:05:41.375Z,28
2017-10-31T13:06:49.477Z,28
2017-10-31T13:07:57.732Z,24
2017-10-31T13:09:05.625Z,24
2017-10-31T13:10:13.721Z,28
2017-10-31T13:11:21.807Z,24
2017-10-31T13:12:29.895Z,28
2017-10-31T13:13:37.979Z,28
2017-10-31T13:14:46.076Z,28
2017-10-31T13:15:54.511Z,28
2017-10-31T13:17:02.600Z,24
2017-10-31T13:18:10.684Z,28
2017-10-31T13:19:18.772Z,28
2017-10-31T13:20:26.850Z,28
2017-10-31T13:21:35.106Z,28
2017-10-31T13:22:43.043Z,28
2017-10-31T13:23:51.117Z,32
2017-10-31T13:24:59.203Z,28
2017-10-31T13:26:07.285Z,28
2017-10-31T13:27:15.371Z,28
2017-10-31T13:28:23.452Z,28
2017-10-31T13:29:31.537Z,32
2017-10-31T13:30:39.623Z,32
2017-10-31T13:31:47.758Z,32
2017-10-31T13:32:55.792Z,36
2017-10-31T13:34:03.877Z,28
2017-10-31T13:35:11.962Z,36
2017-10-31T13:36:20.055Z,36
2017-10-31T13:37:28.142Z,44
2017-10-31T13:38:36.236Z,44
2017-10-31T13:39:44.312Z,44
2017-10-31T13:40:52.397Z,48
2017-10-31T13:42:00.484Z,48
2017-10-31T13:43:08.569Z,48
2017-10-31T13:44:16.650Z,52
2017-10-31T13:45:24.750Z,52
2017-10-31T13:46:32.831Z,48
2017-10-31T13:47:40.915Z,44
2017-10-31T13:48:49.001Z,44
2017-10-31T13:49:57.086Z,48
2017-10-31T13:51:05.172Z,40
2017-10-31T13:52:13.255Z,28
2017-10-31T13:53:21.338Z,48
2017-10-31T13:54:29.424Z,36
2017-10-31T13:55:37.511Z,48
2017-10-31T13:56:45.596Z,32
2017-10-31T13:57:53.680Z,52
2017-10-31T13:59:02.224Z,52
2017-10-31T14:00:10.316Z,60
2017-10-31T14:01:18.400Z,44
2017-10-31T14:02:26.482Z,24
2017-10-31T14:03:34.564Z,20
2017-10-31T14:04:42.650Z,44
2017-10-31T14:05:50.734Z,16
2017-10-31T14:06:58.817Z,16
2017-10-31T14:08:06.923Z,16
2017-10-31T14:09:14.995Z,16
2017-10-31T14:10:24.143Z,12
2017-10-31T14:11:32.231Z,12
2017-10-31T14:12:40.314Z,12
2017-10-31T14:13:48.395Z,16
2017-10-31T14:14:56.482Z,12
2017-10-31T14:16:04.567Z,12
2017-10-31T14:17:12.653Z,16
2017-10-31T14:18:20.737Z,12
2017-10-31T14:19:28.821Z,16
2017-10-31T14:20:36.926Z,16
2017-10-31T14:21:44.995Z,16
2017-10-31T14:22:53.075Z,12
2017-10-31T14:24:01.158Z,12
2017-10-31T14:25:09.254Z,16
2017-10-31T14:26:17.339Z,16
2017-10-31T14:27:25.424Z,16
2017-10-31T14:28:33.510Z,20
2017-10-31T14:29:41.609Z,20
2017-10-31T14:30:49.679Z,16
2017-10-31T14:31:57.764Z,16
2017-10-31T14:33:05.853Z,12
2017-10-31T14:34:13.933Z,12
2017-10-31T14:35:22.019Z,12
2017-10-31T14:36:30.104Z,16
2017-10-31T14:37:38.188Z,12
2017-10-31T14:38:46.292Z,20
2017-10-31T14:39:54.356Z,16
2017-10-31T14:41:02.442Z,16
2017-10-31T14:42:10.525Z,12
2017-10-31T14:43:18.610Z,12
2017-10-31T14:44:26.696Z,12
2017-10-31T14:45:34.783Z,12
2017-10-31T14:46:42.866Z,8
2017-10-31T14:47:50.953Z,12
2017-10-31T14:48:59.046Z,12
2017-10-31T14:50:07.123Z,8
2017-10-31T14:51:15.208Z,12
2017-10-31T14:52:23.291Z,12
2017-10-31T14:53:31.376Z,8
2017-10-31T14:54:39.462Z,12
2017-10-31T14:55:47.545Z,8
2017-10-31T14:56:55.630Z,8
2017-10-31T14:58:03.718Z,8
2017-10-31T14:59:11.801Z,8
2017-10-31T15:00:19.888Z,4
2017-10-31T15:01:27.975Z,8
2017-10-31T15:02:36.069Z,8
2017-10-31T15:03:44.150Z,8
2017-10-31T15:04:52.235Z,8
2017-10-31T15:06:00.321Z,8
2017-10-31T15:07:08.411Z,4
2017-10-31T15:08:16.492Z,4
2017-10-31T15:09:24.574Z,4
2017-10-31T15:10:32.661Z,8
2017-10-31T15:11:40.750Z,8
2017-10-31T15:12:48.831Z,8
2017-10-31T15:13:56.921Z,8
2017-10-31T15:15:05.002Z,8
2017-10-31T15:16:13.097Z,8
2017-10-31T15:17:21.179Z,8
2017-10-31T15:18:29.262Z,8
2017-10-31T15:19:37.354Z,4
2017-10-31T15:20:45.433Z,4
2017-10-31T15:21:53.525Z,4
2017-10-31T15:23:01.604Z,4
2017-10-31T15:24:09.692Z,4
2017-10-31T15:25:17.773Z,4
2017-10-31T15:26:25.873Z,4
2017-10-31T15:27:34.321Z,4
2017-10-31T15:28:42.032Z,8
2017-10-31T15:29:50.114Z,8
2017-10-31T15:30:58.204Z,8
2017-10-31T15:32:06.284Z,8
2017-10-31T15:33:14.370Z,4
2017-10-31T15:34:22.469Z,4
2017-10-31T15:35:30.551Z,4
2017-10-31T15:36:38.636Z,4
2017-10-31T15:37:46.721Z,4
2017-10-31T15:38:54.806Z,4
2017-10-31T15:40:02.890Z,4
2017-10-31T15:41:10.976Z,4
2017-10-31T15:42:19.063Z,4
2017-10-31T15:43:27.152Z,4
2017-10-31T15:44:35.233Z,4
2017-10-31T15:45:43.329Z,0
2017-10-31T15:46:51.417Z,0
2017-10-31T15:47:59.497Z,4
2017-10-31T15:49:07.584Z,4
2017-10-31T15:50:15.669Z,4
2017-10-31T15:51:23.756Z,4
2017-10-31T15:52:31.839Z,4
2017-10-31T15:53:39.922Z,4
2017-10-31T15:54:48.029Z,4
2017-10-31T15:55:56.096Z,0
2017-10-31T15:57:04.182Z,0
2017-10-31T15:58:12.272Z,0
2017-10-31T15:59:20.353Z,0
2017-10-31T16:00:28.438Z,0
2017-10-31T16:01:36.523Z,0
2017-10-31T16:02:44.617Z,4
2017-10-31T16:03:52.695Z,4
2017-10-31T16:05:00.811Z,4
2017-10-31T16:06:08.882Z,0
2017-10-31T16:07:16.953Z,0
2017-10-31T16:08:25.810Z,0
2017-10-31T16:09:33.895Z,0
2017-10-31T16:10:41.992Z,0
2017-10-31T16:11:50.091Z,0
2017-10-31T16:12:58.159Z,0
2017-10-31T16:14:06.353Z,0
2017-10-31T16:15:14.444Z,0
2017-10-31T16:16:22.521Z,0
2017-10-31T16:17:30.607Z,0
2017-10-31T16:18:38.691Z,0
2017-10-31T16:19:46.777Z,0
2017-10-31T16:20:54.864Z,0
2017-10-31T16:22:02.950Z,0
2017-10-31T16:23:11.039Z,0
2017-10-31T16:24:19.119Z,0
2017-10-31T16:25:27.205Z,0
2017-10-31T16:26:35.294Z,0
2017-10-31T16:27:43.377Z,0
2017-10-31T16:28:51.464Z,0